createdAt,value
2023-04-28T00:00:13.701Z,5.97
2023-04-28T00:02:41.653Z,7.10
2023-04-28T00:05:10.223Z,6.35
2023-04-28T00:07:38.145Z,5.78
2023-04-28T00:10:07.570Z,5.22
2023-04-28T00:12:35.316Z,8.63
2023-04-28T00:15:03.971Z,8.85
2023-04-28T00:17:32.350Z,11.78
2023-04-28T00:20:00.526Z,5.92
2023-04-28T00:22:28.279Z,5.65
2023-04-28T00:24:56.783Z,8.28
2023-04-28T00:27:30.630Z,14.80
2023-04-28T00:29:59.806Z,9.57
2023-04-28T00:32:27.618Z,6.97
2023-04-28T00:34:55.794Z,9.88
2023-04-28T00:37:23.420Z,8.93
2023-04-28T00:39:56.271Z,7.85
2023-04-28T00:42:24.460Z,7.30
2023-04-28T00:44:52.404Z,7.50
2023-04-28T00:47:21.209Z,8.28
2023-04-28T00:49:49.890Z,7.12
2023-04-28T00:52:17.723Z,7.28
2023-04-28T00:54:47.773Z,8.58
2023-04-28T00:57:15.760Z,7.17
2023-04-28T00:59:44.065Z,8.60
2023-04-28T01:02:13.598Z,8.23
2023-04-28T01:04:41.422Z,9.75
2023-04-28T01:07:09.485Z,8.10
2023-04-28T01:09:40.653Z,6.53
2023-04-28T01:12:11.090Z,9.10
2023-04-28T01:14:46.970Z,8.63
2023-04-28T01:17:15.646Z,9.45
2023-04-28T01:19:45.144Z,9.13
2023-04-28T01:22:17.709Z,8.25
2023-04-28T01:24:45.200Z,9.30
2023-04-28T01:27:14.452Z,9.13
2023-04-28T01:29:42.613Z,10.63
2023-04-28T01:32:10.786Z,11.00
2023-04-28T01:34:41.811Z,10.78
2023-04-28T01:37:09.261Z,11.33
2023-04-28T01:39:38.380Z,10.45
2023-04-28T01:42:06.238Z,9.68
2023-04-28T01:44:34.345Z,9.65
2023-04-28T01:47:01.830Z,9.55
2023-04-28T01:49:30.259Z,10.88
2023-04-28T01:51:58.320Z,12.50
2023-04-28T01:54:26.509Z,9.25
2023-04-28T01:56:54.213Z,10.98
2023-04-28T01:59:22.753Z,9.98
2023-04-28T02:01:51.104Z,11.00
2023-04-28T02:04:19.133Z,12.43
2023-04-28T02:06:46.716Z,10.90
2023-04-28T02:09:17.976Z,9.23
2023-04-28T02:11:45.522Z,12.00
2023-04-28T02:14:13.602Z,9.33
2023-04-28T02:16:41.778Z,12.88
2023-04-28T02:19:09.520Z,11.80
2023-04-28T02:21:36.900Z,14.38
2023-04-28T02:24:05.200Z,11.50
2023-04-28T02:26:34.701Z,9.15
2023-04-28T02:29:03.981Z,11.12
2023-04-28T02:31:33.617Z,10.35
2023-04-28T02:34:01.574Z,10.38
2023-04-28T02:36:29.199Z,10.63
2023-04-28T02:38:57.210Z,11.35
2023-04-28T02:41:24.693Z,8.53
2023-04-28T02:43:53.739Z,6.33
2023-04-28T02:46:27.360Z,4.70
2023-04-28T02:48:55.561Z,5.90
2023-04-28T02:51:24.132Z,7.12
2023-04-28T02:53:52.316Z,8.08
2023-04-28T02:56:20.123Z,6.58
2023-04-28T02:58:47.830Z,6.92
2023-04-28T03:01:15.239Z,7.22
2023-04-28T03:03:43.550Z,10.45
2023-04-28T03:06:11.096Z,8.08
2023-04-28T03:08:39.030Z,7.70
2023-04-28T03:11:06.915Z,6.97
2023-04-28T03:13:37.067Z,7.65
2023-04-28T03:16:05.952Z,7.83
2023-04-28T03:18:33.812Z,7.22
2023-04-28T03:21:01.865Z,7.28
2023-04-28T03:23:29.778Z,7.17
2023-04-28T03:25:57.520Z,10.30
2023-04-28T03:28:25.816Z,8.03
2023-04-28T03:30:53.571Z,8.30
2023-04-28T03:33:22.267Z,10.80
2023-04-28T03:35:59.191Z,7.53
2023-04-28T03:38:32.851Z,6.65
2023-04-28T03:41:00.681Z,6.65
2023-04-28T03:43:37.707Z,9.33
2023-04-28T03:46:16.155Z,8.63
2023-04-28T03:48:44.250Z,7.03
2023-04-28T03:51:12.129Z,7.80
2023-04-28T03:53:40.089Z,8.48
2023-04-28T03:56:08.601Z,8.18
2023-04-28T03:58:36.936Z,7.95
2023-04-28T04:01:05.432Z,5.55
2023-04-28T04:03:34.907Z,6.92
2023-04-28T04:06:02.638Z,7.22
2023-04-28T04:08:30.148Z,6.50
2023-04-28T04:11:01.056Z,7.37
2023-04-28T04:13:29.258Z,7.22
2023-04-28T04:15:57.013Z,6.80
2023-04-28T04:18:24.915Z,9.53
2023-04-28T04:21:12.928Z,8.13
2023-04-28T04:23:40.901Z,8.33
2023-04-28T04:26:08.703Z,7.33
2023-04-28T04:28:36.244Z,7.87
2023-04-28T04:31:20.883Z,10.95
2023-04-28T04:33:49.224Z,9.90
2023-04-28T04:36:18.081Z,9.63
2023-04-28T04:38:45.634Z,16.20
2023-04-28T04:41:18.846Z,10.40
2023-04-28T04:43:47.896Z,14.30
2023-04-28T04:46:15.634Z,13.62
2023-04-28T04:48:44.634Z,10.40
2023-04-28T04:51:12.980Z,14.45
2023-04-28T04:53:40.796Z,9.68
2023-04-28T04:56:08.419Z,12.90
2023-04-28T04:58:37.341Z,13.03
2023-04-28T05:01:12.625Z,12.18
2023-04-28T05:04:00.350Z,12.10
2023-04-28T05:06:28.489Z,12.63
2023-04-28T05:08:57.990Z,8.75
2023-04-28T05:11:26.654Z,10.15
2023-04-28T05:13:54.180Z,6.75
2023-04-28T05:16:22.911Z,11.05
2023-04-28T05:19:01.144Z,7.33
2023-04-28T05:21:28.966Z,10.78
2023-04-28T05:24:02.006Z,11.75
2023-04-28T05:26:30.332Z,9.75
2023-04-28T05:28:59.996Z,7.53
2023-04-28T05:31:27.836Z,7.33
2023-04-28T05:33:55.826Z,8.80
2023-04-28T05:36:23.383Z,10.32
2023-04-28T05:38:51.560Z,9.48
2023-04-28T05:41:19.818Z,9.55
2023-04-28T05:43:48.035Z,15.32
2023-04-28T05:46:35.595Z,8.83
2023-04-28T05:49:03.692Z,9.20
2023-04-28T05:51:34.890Z,12.70
2023-04-28T05:54:03.080Z,9.83
2023-04-28T05:56:30.995Z,11.28
2023-04-28T05:58:59.411Z,10.75
2023-04-28T06:01:27.241Z,8.10
2023-04-28T06:03:56.960Z,16.23
2023-04-28T06:06:26.783Z,12.35
2023-04-28T06:09:15.018Z,12.90
2023-04-28T06:11:43.084Z,10.55
2023-04-28T06:14:10.629Z,10.85
2023-04-28T06:16:38.584Z,10.45
2023-04-28T06:19:06.294Z,9.88
2023-04-28T06:21:35.394Z,13.98
2023-04-28T06:24:04.915Z,8.63
2023-04-28T06:26:32.953Z,12.30
2023-04-28T06:29:01.920Z,12.43
2023-04-28T06:31:30.239Z,13.70
2023-04-28T06:33:58.812Z,10.30
2023-04-28T06:36:27.102Z,11.20
2023-04-28T06:38:55.745Z,12.75
2023-04-28T06:41:23.050Z,9.05
2023-04-28T06:43:52.516Z,11.18
2023-04-28T06:46:27.922Z,12.10
2023-04-28T06:48:55.416Z,12.50
2023-04-28T06:51:23.040Z,10.48
2023-04-28T06:53:53.728Z,9.20
2023-04-28T06:56:23.985Z,14.28
2023-04-28T06:58:51.985Z,15.32
2023-04-28T07:01:19.748Z,11.05
2023-04-28T07:03:51.447Z,10.23
2023-04-28T07:06:19.291Z,9.85
2023-04-28T07:08:47.275Z,9.20
2023-04-28T07:11:14.515Z,8.83
2023-04-28T07:13:43.251Z,9.90
2023-04-28T07:16:11.438Z,7.83
2023-04-28T07:18:39.151Z,8.05
2023-04-28T07:21:06.918Z,9.18
2023-04-28T07:23:36.238Z,10.58
2023-04-28T07:26:04.081Z,8.08
2023-04-28T07:28:32.184Z,12.98
2023-04-28T07:30:59.600Z,6.80
2023-04-28T07:33:27.508Z,7.42
2023-04-28T07:35:55.554Z,5.45
2023-04-28T07:38:23.864Z,6.45
2023-04-28T07:43:21.814Z,5.45
2023-04-28T07:45:51.327Z,5.37
2023-04-28T07:48:19.256Z,3.52
2023-04-28T07:50:47.447Z,3.08
2023-04-28T07:53:15.283Z,4.05
2023-04-28T07:55:43.537Z,6.97
2023-04-28T07:58:11.381Z,4.70
2023-04-28T08:00:41.058Z,4.60
2023-04-28T08:03:09.328Z,7.08
2023-04-28T08:05:37.040Z,4.28
2023-04-28T08:08:07.661Z,6.70
2023-04-28T08:10:35.505Z,6.40
2023-04-28T08:13:06.646Z,4.92
2023-04-28T08:15:34.949Z,5.97
2023-04-28T08:18:03.784Z,7.15
2023-04-28T08:20:32.947Z,5.55
2023-04-28T08:23:00.332Z,7.92
2023-04-28T08:25:30.834Z,5.62
2023-04-28T08:27:59.065Z,8.38
2023-04-28T08:30:26.976Z,7.58
2023-04-28T08:32:54.952Z,9.45
2023-04-28T08:35:22.713Z,6.87
2023-04-28T08:37:51.181Z,13.13
2023-04-28T08:40:19.633Z,9.15
2023-04-28T08:42:47.823Z,7.60
2023-04-28T08:45:16.140Z,6.83
2023-04-28T08:47:48.691Z,8.70
2023-04-28T08:50:18.640Z,8.10
2023-04-28T08:52:47.782Z,6.25
2023-04-28T08:55:17.360Z,15.00
2023-04-28T08:57:50.084Z,8.88
2023-04-28T09:00:18.753Z,11.78
2023-04-28T09:02:46.806Z,12.40
2023-04-28T09:05:15.247Z,7.42
2023-04-28T09:07:50.315Z,7.05
2023-04-28T09:10:25.350Z,6.40
2023-04-28T09:12:54.429Z,7.03
2023-04-28T09:15:33.900Z,7.33
2023-04-28T09:18:06.694Z,8.25
2023-04-28T09:20:36.657Z,5.03
2023-04-28T09:23:16.470Z,3.90
2023-04-28T09:26:11.394Z,5.35
2023-04-28T09:28:39.528Z,7.58
2023-04-28T09:31:09.388Z,6.55
2023-04-28T09:33:37.407Z,5.33
2023-04-28T09:36:05.770Z,4.60
2023-04-28T09:41:14.200Z,3.92
2023-04-28T09:43:45.855Z,4.00
2023-04-28T09:46:17.685Z,4.53
2023-04-28T09:48:45.501Z,5.35
2023-04-28T09:51:17.653Z,2.40
2023-04-28T09:53:45.738Z,3.15
2023-04-28T09:56:14.019Z,5.53
2023-04-28T09:58:43.778Z,2.20
2023-04-28T10:01:13.375Z,4.20
2023-04-28T10:03:42.258Z,3.00
2023-04-28T10:06:10.703Z,3.92
2023-04-28T10:08:38.298Z,2.85
2023-04-28T10:11:06.983Z,7.95
2023-04-28T10:13:36.055Z,2.85
2023-04-28T10:16:04.996Z,3.47
2023-04-28T10:18:36.018Z,3.40
2023-04-28T10:21:04.903Z,3.12
2023-04-28T10:24:02.779Z,4.33
2023-04-28T10:27:00.309Z,7.08
2023-04-28T10:29:28.172Z,3.15
2023-04-28T10:32:18.561Z,3.62
2023-04-28T10:34:47.850Z,3.95
2023-04-28T10:37:29.648Z,2.67
2023-04-28T10:40:36.112Z,4.47
2023-04-28T10:43:04.646Z,4.62
2023-04-28T10:45:57.885Z,6.03
2023-04-28T10:48:50.665Z,3.45
2023-04-28T10:51:22.900Z,3.85
2023-04-28T10:53:54.901Z,3.05
2023-04-28T10:56:26.165Z,4.30
2023-04-28T10:59:00.872Z,2.80
2023-04-28T11:04:13.445Z,2.27
2023-04-28T11:06:44.211Z,2.17
2023-04-28T11:09:18.698Z,1.82
2023-04-28T11:12:02.544Z,3.45
2023-04-28T11:14:34.219Z,3.70
2023-04-28T11:17:07.040Z,2.75
2023-04-28T11:19:40.858Z,3.50
2023-04-28T11:22:17.349Z,2.17
2023-04-28T11:25:00.523Z,1.42
2023-04-28T11:27:30.240Z,1.95
2023-04-28T11:29:57.987Z,3.00
2023-04-28T11:32:34.862Z,2.77
2023-04-28T11:35:04.817Z,3.40
2023-04-28T11:37:32.801Z,3.72
2023-04-28T11:40:05.755Z,3.75
2023-04-28T11:42:34.446Z,4.55
2023-04-28T11:45:02.282Z,3.05
2023-04-28T11:47:33.898Z,3.90
2023-04-28T11:50:04.298Z,4.45
2023-04-28T11:52:32.757Z,2.65
2023-04-28T11:55:02.549Z,4.55
2023-04-28T11:57:30.439Z,4.83
2023-04-28T12:00:17.959Z,5.20
2023-04-28T12:02:47.306Z,3.70
2023-04-28T12:05:15.634Z,3.90
2023-04-28T12:07:44.760Z,3.87
2023-04-28T12:10:17.418Z,7.87
2023-04-28T12:12:52.060Z,8.68
2023-04-28T12:15:16.696Z,9.43
2023-04-28T12:17:46.112Z,9.85
2023-04-28T12:20:35.441Z,5.42
2023-04-28T12:23:03.222Z,6.60
2023-04-28T12:25:31.181Z,8.63
2023-04-28T12:28:08.141Z,6.40
2023-04-28T12:30:39.495Z,7.17
2023-04-28T12:33:25.544Z,6.33
2023-04-28T12:35:57.541Z,8.45
2023-04-28T12:38:26.402Z,7.17
2023-04-28T12:40:58.338Z,6.78
2023-04-28T12:43:27.487Z,8.78
2023-04-28T12:45:57.095Z,11.15
2023-04-28T12:48:25.607Z,9.25
2023-04-28T12:50:53.669Z,8.80
2023-04-28T12:53:21.087Z,10.45
2023-04-28T12:55:49.392Z,9.83
2023-04-28T12:58:18.581Z,10.68
2023-04-28T13:00:47.160Z,9.48
2023-04-28T13:03:16.095Z,12.37
2023-04-28T13:05:44.453Z,10.70
2023-04-28T13:08:12.581Z,9.25
2023-04-28T13:10:41.422Z,9.78
2023-04-28T13:13:08.986Z,8.78
2023-04-28T13:15:38.792Z,11.50
2023-04-28T13:18:06.942Z,8.40
2023-04-28T13:20:35.027Z,9.70
2023-04-28T13:23:03.066Z,10.08
2023-04-28T13:25:31.428Z,9.28
2023-04-28T13:27:59.102Z,9.48
2023-04-28T13:30:27.122Z,6.60
2023-04-28T13:32:56.872Z,10.10
2023-04-28T13:35:25.568Z,6.42
2023-04-28T13:37:55.071Z,11.60
2023-04-28T13:40:23.115Z,10.45
2023-04-28T13:42:54.267Z,8.65
2023-04-28T13:45:22.871Z,7.85
2023-04-28T13:47:51.359Z,10.35
2023-04-28T13:50:19.269Z,11.68
2023-04-28T13:52:47.632Z,9.03
2023-04-28T13:55:15.400Z,9.68
2023-04-28T13:57:42.738Z,10.85
2023-04-28T14:00:11.941Z,17.95
2023-04-28T14:02:40.219Z,14.87
2023-04-28T14:05:08.873Z,11.50
2023-04-28T14:07:36.632Z,11.85
2023-04-28T14:10:06.375Z,10.93
2023-04-28T14:12:34.420Z,11.93
2023-04-28T14:15:02.435Z,10.43
2023-04-28T14:17:31.048Z,12.78
2023-04-28T14:19:59.377Z,11.15
2023-04-28T14:22:26.840Z,12.45
2023-04-28T14:24:54.677Z,11.05
2023-04-28T14:27:24.833Z,15.95
2023-04-28T14:29:53.889Z,12.30
2023-04-28T14:32:21.960Z,11.30
2023-04-28T14:34:50.138Z,11.88
2023-04-28T14:37:18.378Z,11.73
2023-04-28T14:39:46.009Z,11.93
2023-04-28T14:42:13.877Z,12.40
2023-04-28T14:44:41.723Z,17.42
2023-04-28T14:47:09.823Z,21.35
2023-04-28T14:49:37.748Z,14.05
2023-04-28T14:52:06.687Z,16.70
2023-04-28T14:54:37.322Z,13.25
2023-04-28T14:57:05.448Z,15.83
2023-04-28T14:59:33.723Z,16.52
2023-04-28T15:02:02.794Z,12.90
2023-04-28T15:04:31.187Z,13.83
2023-04-28T15:07:00.127Z,13.90
2023-04-28T15:09:28.567Z,15.15
2023-04-28T15:11:56.107Z,13.38
2023-04-28T15:14:26.877Z,14.90
2023-04-28T15:16:54.851Z,19.02
2023-04-28T15:19:23.211Z,16.55
2023-04-28T15:21:51.113Z,16.87
2023-04-28T15:24:21.587Z,19.62
2023-04-28T15:26:49.930Z,18.25
2023-04-28T15:29:17.991Z,16.45
2023-04-28T15:31:45.866Z,19.87
2023-04-28T15:34:13.798Z,19.60
2023-04-28T15:36:42.639Z,18.75
2023-04-28T15:39:12.576Z,19.32
2023-04-28T15:41:40.310Z,18.57
2023-04-28T15:44:09.749Z,19.70
2023-04-28T15:46:38.600Z,19.42
2023-04-28T15:49:06.170Z,19.35
2023-04-28T15:51:33.706Z,20.08
2023-04-28T15:54:01.412Z,19.05
2023-04-28T15:56:32.249Z,17.60
2023-04-28T15:58:59.856Z,17.17
2023-04-28T16:01:31.371Z,18.82
2023-04-28T16:03:59.503Z,18.15
2023-04-28T16:06:27.463Z,19.02
2023-04-28T16:08:57.067Z,20.40
2023-04-28T16:11:24.926Z,18.17
2023-04-28T16:13:53.055Z,23.15
2023-04-28T16:16:23.672Z,18.57
2023-04-28T16:18:51.473Z,18.57
2023-04-28T16:21:19.499Z,18.80
2023-04-28T16:23:47.725Z,18.77
2023-04-28T16:26:15.338Z,17.80
2023-04-28T16:28:42.938Z,20.85
2023-04-28T16:31:12.289Z,18.15
2023-04-28T16:33:39.538Z,20.92
2023-04-28T16:36:07.407Z,16.93
2023-04-28T16:38:35.978Z,18.95
2023-04-28T16:41:03.708Z,17.90
2023-04-28T16:43:33.095Z,26.20
2023-04-28T16:46:01.097Z,17.35
2023-04-28T16:48:28.560Z,21.60
2023-04-28T16:50:57.830Z,18.62
2023-04-28T16:53:25.642Z,17.35
2023-04-28T16:55:54.198Z,18.82
2023-04-28T16:58:22.818Z,21.75
2023-04-28T17:00:51.158Z,23.42
2023-04-28T17:03:19.334Z,22.37
2023-04-28T17:05:47.292Z,19.73
2023-04-28T17:08:18.546Z,14.87
2023-04-28T17:10:45.984Z,17.92
2023-04-28T17:13:13.828Z,16.60
2023-04-28T17:15:41.808Z,20.00
2023-04-28T17:18:10.470Z,20.50
2023-04-28T17:20:40.023Z,18.48
2023-04-28T17:23:07.800Z,18.35
2023-04-28T17:25:38.747Z,21.33
2023-04-28T17:28:07.385Z,18.00
2023-04-28T17:30:38.494Z,20.77
2023-04-28T17:33:06.690Z,24.00
2023-04-28T17:35:34.223Z,17.23
2023-04-28T17:38:02.202Z,14.73
2023-04-28T17:40:30.637Z,19.20
2023-04-28T17:42:58.963Z,18.25
2023-04-28T17:45:26.799Z,17.95
2023-04-28T17:47:56.629Z,18.98
2023-04-28T17:50:24.156Z,15.40
2023-04-28T17:52:52.417Z,20.27
2023-04-28T17:55:21.214Z,18.23
2023-04-28T17:57:52.588Z,21.50
2023-04-28T18:00:20.738Z,19.05
2023-04-28T18:02:48.216Z,20.00
2023-04-28T18:05:18.627Z,17.57
2023-04-28T18:07:47.447Z,17.82
2023-04-28T18:10:16.426Z,18.55
2023-04-28T18:12:45.637Z,20.62
2023-04-28T18:15:14.155Z,15.05
2023-04-28T18:17:41.904Z,19.50
2023-04-28T18:20:10.558Z,16.15
2023-04-28T18:22:39.464Z,17.15
2023-04-28T18:25:07.836Z,22.50
2023-04-28T18:27:35.629Z,16.70
2023-04-28T18:30:04.857Z,20.88
2023-04-28T18:32:34.144Z,18.80
2023-04-28T18:35:01.729Z,16.20
2023-04-28T18:37:30.356Z,17.45
2023-04-28T18:39:58.107Z,15.00
2023-04-28T18:42:27.733Z,17.30
2023-04-28T18:44:59.494Z,14.38
2023-04-28T18:47:27.333Z,21.15
2023-04-28T18:49:55.490Z,24.05
2023-04-28T18:52:23.266Z,16.90
2023-04-28T18:54:52.379Z,20.10
2023-04-28T18:57:21.480Z,20.97
2023-04-28T18:59:50.096Z,18.10
2023-04-28T19:02:18.113Z,14.78
2023-04-28T19:04:46.457Z,21.80
2023-04-28T19:07:14.317Z,18.48
2023-04-28T19:09:42.846Z,17.82
2023-04-28T19:12:13.705Z,20.85
2023-04-28T19:14:42.559Z,17.70
2023-04-28T19:17:10.401Z,18.62
2023-04-28T19:19:38.704Z,19.73
2023-04-28T19:22:06.703Z,16.73
2023-04-28T19:24:34.937Z,20.17
2023-04-28T19:27:03.559Z,17.45
2023-04-28T19:29:30.989Z,20.10
2023-04-28T19:31:58.895Z,18.90
2023-04-28T19:34:27.453Z,17.73
2023-04-28T19:36:56.055Z,17.32
2023-04-28T19:39:23.690Z,18.23
2023-04-28T19:41:52.803Z,18.92
2023-04-28T19:44:20.918Z,19.37
2023-04-28T19:46:52.707Z,17.12
2023-04-28T19:49:20.438Z,17.65
2023-04-28T19:51:48.601Z,16.05
2023-04-28T19:54:16.803Z,15.40
2023-04-28T19:56:44.924Z,15.32
2023-04-28T19:59:12.755Z,13.88
2023-04-28T20:01:42.432Z,14.87
2023-04-28T20:04:10.033Z,21.17
2023-04-28T20:06:38.154Z,20.70
2023-04-28T20:09:06.403Z,17.35
2023-04-28T20:11:35.522Z,16.90
2023-04-28T20:14:03.973Z,19.20
2023-04-28T20:16:32.094Z,20.60
2023-04-28T20:18:59.995Z,17.67
2023-04-28T20:21:28.310Z,20.15
2023-04-28T20:23:56.227Z,17.40
2023-04-28T20:26:24.350Z,18.52
2023-04-28T20:28:51.990Z,17.15
2023-04-28T20:31:19.898Z,19.30
2023-04-28T20:33:47.315Z,21.17
2023-04-28T20:36:15.292Z,16.17
2023-04-28T20:38:43.779Z,19.42
2023-04-28T20:41:12.121Z,16.52
2023-04-28T20:43:41.339Z,18.67
2023-04-28T20:46:10.491Z,21.75
2023-04-28T20:48:38.289Z,20.65
2023-04-28T20:51:06.912Z,17.52
2023-04-28T20:53:34.805Z,16.27
2023-04-28T20:56:02.742Z,19.23
2023-04-28T20:58:31.995Z,14.47
2023-04-28T21:00:59.488Z,18.07
2023-04-28T21:03:27.374Z,13.88
2023-04-28T21:05:56.329Z,18.35
2023-04-28T21:08:24.447Z,14.28
2023-04-28T21:10:52.078Z,16.73
2023-04-28T21:13:19.975Z,17.80
2023-04-28T21:15:48.001Z,17.27
2023-04-28T21:18:39.222Z,17.15
2023-04-28T21:21:06.929Z,15.70
2023-04-28T21:23:39.109Z,15.32
2023-04-28T21:26:07.745Z,19.60
2023-04-28T21:28:36.243Z,16.30
2023-04-28T21:31:05.124Z,14.87
2023-04-28T21:33:33.426Z,20.12
2023-04-28T21:36:09.662Z,18.77
2023-04-28T21:38:38.255Z,18.07
2023-04-28T21:41:25.760Z,20.10
2023-04-28T21:43:53.857Z,17.45
2023-04-28T21:46:21.688Z,15.25
2023-04-28T21:48:49.700Z,19.00
2023-04-28T21:51:17.758Z,18.07
2023-04-28T21:53:45.651Z,20.97
2023-04-28T21:56:15.420Z,16.85
2023-04-28T21:58:43.500Z,20.77
2023-04-28T22:01:15.035Z,18.90
2023-04-28T22:03:43.341Z,19.07
2023-04-28T22:06:11.791Z,17.52
2023-04-28T22:08:40.217Z,14.50
2023-04-28T22:11:08.345Z,19.45
2023-04-28T22:13:38.317Z,15.68
2023-04-28T22:16:07.673Z,16.55
2023-04-28T22:18:35.471Z,18.10
2023-04-28T22:21:05.004Z,17.35
2023-04-28T22:23:33.002Z,16.80
2023-04-28T22:26:01.289Z,15.32
2023-04-28T22:28:29.042Z,20.52
2023-04-28T22:30:57.419Z,20.60
2023-04-28T22:33:25.748Z,18.48
2023-04-28T22:35:53.112Z,17.52
2023-04-28T22:38:20.861Z,14.90
2023-04-28T22:40:51.759Z,16.02
2023-04-28T22:43:19.658Z,16.87
2023-04-28T22:45:47.981Z,16.85
2023-04-28T22:48:17.539Z,15.83
2023-04-28T22:50:46.790Z,15.25
2023-04-28T22:53:14.728Z,17.23
2023-04-28T22:55:43.474Z,16.62
2023-04-28T22:58:12.290Z,16.42
2023-04-28T23:00:40.054Z,18.92
2023-04-28T23:03:08.291Z,22.20
2023-04-28T23:05:39.791Z,18.30
2023-04-28T23:08:07.616Z,19.17
2023-04-28T23:10:35.931Z,16.95
2023-04-28T23:13:03.755Z,23.05
2023-04-28T23:15:34.932Z,17.07
2023-04-28T23:18:02.683Z,20.27
2023-04-28T23:20:30.363Z,16.67
2023-04-28T23:22:58.933Z,16.77
2023-04-28T23:25:26.564Z,18.98
2023-04-28T23:27:54.308Z,16.57
2023-04-28T23:30:22.055Z,16.05
2023-04-28T23:32:49.799Z,17.98
2023-04-28T23:35:17.665Z,16.27
2023-04-28T23:37:45.406Z,15.03
2023-04-28T23:40:13.799Z,16.17
2023-04-28T23:42:43.632Z,16.10
2023-04-28T23:45:11.391Z,14.95
2023-04-28T23:47:39.140Z,13.98
2023-04-28T23:50:08.346Z,15.20
2023-04-28T23:52:36.789Z,14.93
2023-04-28T23:55:05.097Z,12.68
2023-04-28T23:57:33.158Z,16.90
